Time;durP1;ratioP1;P1;durP2;ratioP2;P2;SDS_P1;SDS_P2;PMS_P1;PMS_P2;Temp;Humidity;BMP_temperature;BMP_pressure;BME280_temperature;BME280_humidity;BME280_pressure;Samples;Min_cycle;Max_cycle;Signal;HPM_P1;HPM_P2
2021/12/12 00:03:16;;;;;;;26.68;16.00;;;;;;;4.98;88.89;101724.78;1749183;81;21264;-52
2021/12/12 00:05:44;;;;;;;25.82;15.18;;;;;;;5.07;88.88;101726.83;1731219;81;21781;-53
2021/12/12 00:08:52;;;;;;;21.48;14.95;;;;;;;5.07;88.62;101721.41;1706363;84;21263;-50
2021/12/12 00:11:59;;;;;;;22.20;13.98;;;;;;;5.04;88.18;101725.70;1692995;85;21395;-52
2021/12/12 00:15:04;;;;;;;24.70;15.85;;;;;;;4.94;87.76;101734.09;1693088;85;21761;-52
2021/12/12 00:18:10;;;;;;;24.02;15.55;;;;;;;4.80;87.79;101736.89;1701688;83;21757;-53
2021/12/12 00:21:16;;;;;;;24.60;15.75;;;;;;;4.83;88.11;101740.27;1740001;82;21229;-52
2021/12/12 00:24:23;;;;;;;24.77;15.83;;;;;;;4.85;88.19;101741.05;1740647;82;21252;-53
2021/12/12 00:27:28;;;;;;;25.35;16.67;;;;;;;4.91;88.23;101732.95;1744593;81;21209;-53
2021/12/12 00:30:36;;;;;;;25.17;16.17;;;;;;;4.93;88.04;101730.50;1742056;81;21347;-53
2021/12/12 00:33:46;;;;;;;24.23;16.05;;;;;;;4.94;87.90;101727.30;1739983;82;21236;-54
2021/12/12 00:36:52;;;;;;;26.05;15.78;;;;;;;4.94;87.70;101720.05;1706310;83;21722;-54
2021/12/12 00:40:04;;;;;;;23.07;14.98;;;;;;;5.00;87.83;101716.89;1693204;84;21238;-54
2021/12/12 00:43:13;;;;;;;28.05;15.95;;;;;;;5.02;87.45;101718.14;1693019;85;21383;-53
2021/12/12 00:46:20;;;;;;;26.87;16.30;;;;;;;4.96;87.06;101715.87;1691507;84;21352;-53
2021/12/12 00:49:25;;;;;;;24.00;15.18;;;;;;;4.83;86.72;101700.94;1691349;85;21379;-53
2021/12/12 00:52:30;;;;;;;24.15;15.18;;;;;;;4.77;86.92;101714.05;1691766;84;21356;-52
2021/12/12 00:55:37;;;;;;;23.40;15.30;;;;;;;4.69;86.95;101711.88;1691473;83;21268;-51
2021/12/12 00:58:43;;;;;;;24.30;15.65;;;;;;;4.69;87.06;101712.36;1690919;85;21233;-53
2021/12/12 01:01:53;;;;;;;24.40;15.15;;;;;;;4.69;87.28;101705.58;1690881;85;21210;-53
2021/12/12 01:05:02;;;;;;;22.05;15.45;;;;;;;4.71;87.26;101705.84;1691908;84;21252;-52
2021/12/12 01:08:08;;;;;;;24.65;14.65;;;;;;;4.74;87.33;101697.48;1690868;84;21265;-53
2021/12/12 01:11:22;;;;;;;23.20;15.10;;;;;;;4.73;87.11;101709.33;1690840;84;21284;-52
2021/12/12 01:14:32;;;;;;;21.68;14.28;;;;;;;4.65;87.02;101707.63;1690969;85;21245;-53
2021/12/12 01:17:41;;;;;;;20.50;13.30;;;;;;;4.70;87.11;101706.83;1691332;84;21213;-52
2021/12/12 01:20:53;;;;;;;20.27;13.88;;;;;;;4.70;87.09;101710.89;1690861;84;21222;-53
2021/12/12 01:24:19;;;;;;;21.90;13.80;;;;;;;4.66;86.71;101719.36;1690849;85;21369;-53
2021/12/12 01:27:25;;;;;;;17.75;12.75;;;;;;;4.54;86.57;101704.31;1690822;85;21281;-51
2021/12/12 01:30:31;;;;;;;22.93;13.55;;;;;;;4.50;86.71;101710.90;1690806;85;21770;-51
2021/12/12 01:33:38;;;;;;;19.75;13.88;;;;;;;4.49;86.82;101706.94;1690828;85;21225;-52
2021/12/12 01:40:20;;;;;;;24.27;14.60;;;;;;;4.41;86.85;101716.96;1690926;84;21364;-53
2021/12/12 01:43:36;;;;;;;22.48;15.43;;;;;;;4.36;86.91;101720.46;1690885;85;21708;-53
2021/12/12 01:46:50;;;;;;;24.25;16.32;;;;;;;4.36;87.24;101720.97;1691072;85;21364;-51
2021/12/12 01:50:02;;;;;;;22.48;14.55;;;;;;;4.36;87.38;101715.04;1691211;84;21194;-52
2021/12/12 01:53:07;;;;;;;21.45;14.50;;;;;;;4.39;87.48;101716.19;1691295;84;21272;-53
2021/12/12 01:56:22;;;;;;;22.17;13.50;;;;;;;4.34;87.33;101718.84;1690122;83;21793;-54
2021/12/12 01:59:31;;;;;;;19.65;13.13;;;;;;;4.32;87.45;101725.72;1690872;84;21214;-53
2021/12/12 02:02:39;;;;;;;19.57;13.10;;;;;;;4.32;87.46;101722.13;1691292;84;21249;-52
2021/12/12 02:05:45;;;;;;;21.65;13.85;;;;;;;4.34;87.66;101721.05;1690961;84;21214;-52
2021/12/12 02:08:51;;;;;;;21.85;14.75;;;;;;;4.38;87.57;101714.46;1691000;84;21680;-51
2021/12/12 02:11:59;;;;;;;24.35;15.90;;;;;;;4.33;87.44;101712.54;1683969;83;21186;-51
2021/12/12 02:15:04;;;;;;;28.83;15.78;;;;;;;4.32;87.62;101709.94;1716370;83;21219;-52
2021/12/12 02:18:16;;;;;;;25.55;16.27;;;;;;;4.33;87.65;101712.54;1770631;80;21435;-53
2021/12/12 02:21:30;;;;;;;23.80;14.50;;;;;;;4.30;87.56;101708.69;1770436;80;21189;-52
2021/12/12 02:37:56;;;;;;;28.12;16.32;;;;;;;4.20;87.95;101717.55;1751164;80;21737;-52
2021/12/12 02:41:06;;;;;;;24.23;15.05;;;;;;;4.22;88.01;101714.23;1739380;82;21189;-52
2021/12/12 02:44:13;;;;;;;26.12;16.20;;;;;;;4.22;88.05;101713.75;1739822;82;21291;-52
2021/12/12 02:47:31;;;;;;;26.62;15.90;;;;;;;4.27;88.14;101710.25;1740278;82;21447;-53
2021/12/12 02:50:34;;;;;;;25.95;15.68;;;;;;;4.36;88.15;101714.20;1739812;82;21192;-53
2021/12/12 02:53:44;;;;;;;26.52;16.77;;;;;;;4.38;87.94;101724.42;1739331;82;21197;-52
2021/12/12 02:56:52;;;;;;;26.30;16.05;;;;;;;4.34;87.43;101731.04;1737231;81;21704;-52
2021/12/12 02:59:59;;;;;;;31.15;18.25;;;;;;;4.25;87.29;101722.19;1736224;82;21179;-52
2021/12/12 03:03:05;;;;;;;26.73;16.73;;;;;;;4.26;87.36;101711.71;1736432;82;21788;-52
2021/12/12 03:06:14;;;;;;;27.55;16.62;;;;;;;4.27;87.27;101710.25;1736663;82;21171;-52
2021/12/12 03:09:22;;;;;;;28.45;18.67;;;;;;;4.20;86.82;101718.91;1736655;82;21215;-51
2021/12/12 03:12:36;;;;;;;27.30;17.12;;;;;;;4.07;86.79;101714.80;1736564;82;21630;-52
2021/12/12 03:15:45;;;;;;;30.05;16.60;;;;;;;4.03;86.91;101720.49;1737118;82;21201;-53
2021/12/12 03:18:51;;;;;;;25.95;16.32;;;;;;;4.05;87.25;101726.21;1737090;82;21207;-51
2021/12/12 03:21:57;;;;;;;27.10;16.32;;;;;;;4.09;87.23;101730.44;1737098;82;21184;-52
2021/12/12 03:25:02;;;;;;;29.57;15.05;;;;;;;4.09;87.08;101730.95;1736932;82;21226;-52
2021/12/12 03:28:12;;;;;;;24.45;14.53;;;;;;;4.02;86.81;101727.77;1737281;82;21176;-52
2021/12/12 03:31:23;;;;;;;31.70;16.67;;;;;;;3.96;86.75;101738.14;1737033;82;21693;-52
2021/12/12 03:34:30;;;;;;;29.12;16.85;;;;;;;3.84;86.81;101735.74;1737022;82;21299;-52
2021/12/12 03:37:38;;;;;;;27.87;15.58;;;;;;;3.79;87.09;101735.16;1737088;82;21200;-52
2021/12/12 03:40:46;;;;;;;27.27;15.23;;;;;;;3.86;87.59;101734.28;1737164;82;21196;-51
2021/12/12 03:43:58;;;;;;;22.32;14.03;;;;;;;3.97;87.68;101734.45;1737119;82;21236;-52
2021/12/12 03:47:13;;;;;;;23.80;14.78;;;;;;;4.01;87.53;101736.85;1737121;82;22145;-52
2021/12/12 03:50:27;;;;;;;25.75;15.25;;;;;;;4.03;87.42;101736.75;1737309;82;21342;-51
2021/12/12 03:53:34;;;;;;;23.83;15.00;;;;;;;4.01;87.16;101730.08;1736987;82;22076;-52
2021/12/12 03:56:40;;;;;;;24.47;14.73;;;;;;;3.94;87.01;101743.66;1737187;82;21685;-52
2021/12/12 03:59:47;;;;;;;21.30;14.20;;;;;;;3.90;86.95;101752.09;1743030;82;21355;-51
2021/12/12 04:02:54;;;;;;;20.95;14.50;;;;;;;3.92;87.28;101752.36;1742300;82;21382;-52
2021/12/12 04:06:05;;;;;;;21.77;15.28;;;;;;;3.96;87.27;101762.52;1742464;82;21182;-51
2021/12/12 04:09:13;;;;;;;21.80;13.88;;;;;;;3.97;87.35;101748.87;1742203;82;22003;-53
2021/12/12 04:12:21;;;;;;;22.87;14.20;;;;;;;4.05;87.42;101754.66;1742318;82;21185;-52
2021/12/12 04:15:27;;;;;;;21.37;13.72;;;;;;;4.14;87.31;101756.75;1742456;82;21205;-53
2021/12/12 04:18:34;;;;;;;22.17;14.23;;;;;;;4.15;86.89;101754.92;1742395;82;21271;-52
2021/12/12 04:21:41;;;;;;;19.75;12.60;;;;;;;4.12;86.59;101757.33;1742426;82;21829;-53
2021/12/12 04:24:51;;;;;;;21.85;13.20;;;;;;;4.02;86.35;101750.80;1742289;82;21370;-52
2021/12/12 04:27:58;;;;;;;22.13;13.38;;;;;;;3.98;86.46;101764.15;1742304;82;21236;-52
2021/12/12 04:31:05;;;;;;;21.87;13.50;;;;;;;3.99;86.54;101759.13;1742298;82;21339;-52
2021/12/12 04:34:12;;;;;;;22.98;13.88;;;;;;;4.03;86.48;101763.36;1742512;82;21244;-52
2021/12/12 04:37:18;;;;;;;20.77;13.90;;;;;;;4.07;86.46;101763.56;1733901;82;21296;-52
2021/12/12 04:40:25;;;;;;;21.12;13.30;;;;;;;4.14;86.47;101766.71;1733690;82;21335;-53
2021/12/12 04:43:30;;;;;;;19.52;13.40;;;;;;;4.20;86.27;101771.25;1733359;82;21283;-52
2021/12/12 04:50:44;;;;;;;26.87;15.05;;;;;;;4.02;85.59;101757.58;1742302;82;21196;-52
2021/12/12 04:54:11;;;;;;;20.72;13.13;;;;;;;4.02;85.78;101754.87;1742233;82;21343;-53
2021/12/12 04:57:30;;;;;;;21.87;14.53;;;;;;;4.05;85.65;101751.95;1742255;82;21437;-52
2021/12/12 05:00:49;;;;;;;32.88;15.05;;;;;;;3.93;84.94;101762.22;1739451;81;21213;-52
2021/12/12 05:04:06;;;;;;;23.45;14.35;;;;;;;3.76;84.88;101758.39;1740217;82;21317;-51
2021/12/12 05:07:29;;;;;;;24.72;14.73;;;;;;;3.70;84.99;101771.45;1740482;81;21342;-52
2021/12/12 05:10:57;;;;;;;22.52;13.65;;;;;;;3.61;85.03;101766.16;1740457;82;21327;-52
2021/12/12 05:14:09;;;;;;;25.90;15.05;;;;;;;3.54;85.07;101776.09;1754089;81;21441;-52
2021/12/12 05:17:17;;;;;;;23.50;14.38;;;;;;;3.47;85.23;101778.83;1740420;81;21781;-53
2021/12/12 05:20:25;;;;;;;23.50;14.05;;;;;;;3.49;85.60;101780.96;1739813;82;21394;-53
2021/12/12 05:23:33;;;;;;;25.30;15.05;;;;;;;3.53;85.65;101783.38;1739527;82;21220;-53
2021/12/12 05:26:46;;;;;;;27.27;15.08;;;;;;;3.53;85.56;101779.31;1739747;82;21974;-52
2021/12/12 05:30:11;;;;;;;27.35;16.67;;;;;;;3.57;85.55;101784.90;1739966;82;21205;-52
2021/12/12 05:33:15;;;;;;;25.92;15.08;;;;;;;3.60;85.50;101793.33;1740066;82;22035;-52
2021/12/12 05:36:23;;;;;;;24.85;15.98;;;;;;;3.63;85.53;101786.36;1739972;82;21368;-52
2021/12/12 05:39:29;;;;;;;26.57;15.05;;;;;;;3.67;85.48;101787.42;1739798;82;21332;-53
2021/12/12 05:42:33;;;;;;;24.57;14.68;;;;;;;3.67;85.22;101787.89;1733387;82;21750;-53
2021/12/12 05:45:39;;;;;;;24.82;15.68;;;;;;;3.62;85.18;101792.73;1739700;82;21212;-53
2021/12/12 05:48:46;;;;;;;21.48;12.98;;;;;;;3.69;85.41;101803.09;1740509;82;21390;-53
2021/12/12 05:51:52;;;;;;;22.75;14.68;;;;;;;3.75;85.21;101806.77;1740525;82;21338;-53
2021/12/12 05:55:01;;;;;;;22.17;14.03;;;;;;;3.78;85.09;101818.75;1739825;82;21197;-53
2021/12/12 05:58:08;;;;;;;20.75;13.22;;;;;;;3.80;84.88;101820.88;1740092;82;21268;-54
2021/12/12 06:01:15;;;;;;;20.65;12.90;;;;;;;3.81;84.55;101819.91;1738799;81;21402;-53
2021/12/12 06:04:20;;;;;;;21.87;13.50;;;;;;;3.82;84.48;101807.24;1739737;82;21221;-53
2021/12/12 06:07:28;;;;;;;20.80;13.13;;;;;;;3.85;84.38;101804.34;1739629;82;21351;-53
2021/12/12 06:10:34;;;;;;;19.65;12.85;;;;;;;3.88;84.18;101805.02;1740767;82;21248;-53
2021/12/12 06:13:40;;;;;;;21.27;12.65;;;;;;;3.87;84.02;101800.55;1740159;82;21383;-53
2021/12/12 06:16:46;;;;;;;18.80;12.25;;;;;;;3.90;83.89;101811.69;1740395;82;21350;-53
2021/12/12 06:19:53;;;;;;;18.90;12.15;;;;;;;3.91;83.64;101803.46;1740437;82;21730;-53
2021/12/12 06:23:01;;;;;;;20.32;11.88;;;;;;;3.92;83.42;101810.61;1740799;82;21221;-54
2021/12/12 06:26:06;;;;;;;22.52;14.10;;;;;;;3.93;83.15;101830.45;1740381;82;21355;-53
2021/12/12 06:29:11;;;;;;;25.40;15.53;;;;;;;3.79;82.75;101816.41;1740360;82;21255;-52
2021/12/12 06:32:19;;;;;;;24.37;16.40;;;;;;;3.78;82.83;101831.41;1733997;82;21240;-53
2021/12/12 06:35:24;;;;;;;25.05;16.20;;;;;;;3.80;83.07;101826.30;1740495;82;21260;-53
2021/12/12 06:38:31;;;;;;;24.65;14.60;;;;;;;3.81;82.97;101837.98;1740438;82;21367;-53
2021/12/12 06:41:37;;;;;;;25.48;14.23;;;;;;;3.84;83.07;101836.43;1740719;82;21887;-52
2021/12/12 06:44:45;;;;;;;25.57;15.50;;;;;;;3.89;83.11;101832.95;1740540;82;21216;-52
2021/12/12 06:47:51;;;;;;;26.50;16.02;;;;;;;3.91;82.99;101836.44;1740222;82;21583;-53
2021/12/12 06:51:00;;;;;;;24.25;15.35;;;;;;;3.94;82.91;101838.95;1740395;82;21224;-53
2021/12/12 06:54:06;;;;;;;23.98;15.10;;;;;;;3.98;82.88;101831.03;1740100;82;21260;-53
2021/12/12 06:57:15;;;;;;;30.20;16.20;;;;;;;3.94;82.50;101830.34;1740515;82;21268;-53
2021/12/12 07:00:24;;;;;;;28.95;15.70;;;;;;;3.90;82.38;101821.17;1740380;82;21243;-53
2021/12/12 07:03:30;;;;;;;29.48;16.48;;;;;;;3.84;82.42;101834.60;1733732;82;21220;-52
2021/12/12 07:06:37;;;;;;;26.25;16.48;;;;;;;3.83;82.27;101831.52;1740218;82;21353;-54
2021/12/12 07:09:44;;;;;;;31.68;16.52;;;;;;;3.79;82.29;101822.34;1740205;82;21260;-53
2021/12/12 07:12:55;;;;;;;28.92;17.92;;;;;;;3.80;82.54;101825.42;1740552;82;21276;-53
2021/12/12 07:16:03;;;;;;;30.75;17.25;;;;;;;3.78;82.41;101821.45;1740606;82;21209;-54
2021/12/12 07:19:12;;;;;;;34.63;18.67;;;;;;;3.78;82.47;101822.81;1740102;82;21232;-53
2021/12/12 07:22:17;;;;;;;33.78;18.67;;;;;;;3.77;82.56;101829.21;1740627;82;21327;-54
2021/12/12 07:25:22;;;;;;;28.77;17.32;;;;;;;3.81;82.70;101829.38;1740168;82;21204;-53
2021/12/12 07:28:28;;;;;;;37.38;19.92;;;;;;;3.83;82.74;101846.89;1732466;82;21916;-52
2021/12/12 07:31:42;;;;;;;34.08;18.80;;;;;;;3.77;82.29;101839.16;1740436;82;21714;-52
2021/12/12 07:34:50;;;;;;;32.67;19.10;;;;;;;3.59;82.40;101833.53;1739864;82;21425;-53
2021/12/12 07:37:58;;;;;;;34.70;20.37;;;;;;;3.55;82.73;101834.70;1741508;82;21406;-54
2021/12/12 07:41:06;;;;;;;48.95;27.90;;;;;;;3.57;82.76;101831.44;1739941;82;21220;-53
2021/12/12 07:44:15;;;;;;;41.13;24.00;;;;;;;3.52;82.54;101841.17;1739899;82;21220;-52
2021/12/12 07:47:23;;;;;;;36.80;22.07;;;;;;;3.48;82.54;101853.17;1740336;82;21357;-55
2021/12/12 07:50:30;;;;;;;35.95;20.20;;;;;;;3.49;82.62;101840.01;1740310;82;21331;-54
2021/12/12 07:53:38;;;;;;;41.40;21.87;;;;;;;3.53;82.72;101851.05;1740797;82;21217;-53
2021/12/12 07:56:46;;;;;;;38.80;21.68;;;;;;;3.54;82.54;101863.61;1740420;82;21331;-52
2021/12/12 07:59:53;;;;;;;34.05;19.52;;;;;;;3.48;82.30;101870.77;1740641;82;21335;-54
2021/12/12 08:03:03;;;;;;;31.87;19.05;;;;;;;3.40;82.40;101867.66;1740586;80;21213;-53
2021/12/12 08:06:09;;;;;;;33.55;18.48;;;;;;;3.43;82.59;101857.98;1740998;82;21993;-54
2021/12/12 08:09:16;;;;;;;33.75;18.32;;;;;;;3.48;82.85;101852.28;1766920;81;21761;-53
2021/12/12 08:12:24;;;;;;;32.93;18.90;;;;;;;3.55;82.83;101857.22;1752164;81;21927;-53
2021/12/12 08:15:30;;;;;;;36.20;19.52;;;;;;;3.52;82.59;101848.44;1739865;82;21186;-53
2021/12/12 08:18:36;;;;;;;39.23;20.35;;;;;;;3.53;82.79;101850.17;1745626;81;21368;-53
2021/12/12 08:21:44;;;;;;;35.52;18.67;;;;;;;3.53;82.77;101848.81;1770264;81;21320;-53
2021/12/12 08:24:49;;;;;;;30.35;17.35;;;;;;;3.54;82.68;101848.72;1770230;81;21189;-53
2021/12/12 08:27:54;;;;;;;33.30;18.30;;;;;;;3.58;82.90;101847.58;1770055;81;21582;-53
2021/12/12 08:31:00;;;;;;;33.48;18.92;;;;;;;3.68;82.89;101847.37;1770748;80;21846;-54
2021/12/12 08:34:08;;;;;;;32.67;18.23;;;;;;;3.73;82.64;101849.31;1770864;80;21366;-53
2021/12/12 08:37:14;;;;;;;41.28;21.10;;;;;;;3.72;82.29;101836.75;1763353;81;21186;-53
2021/12/12 08:40:29;;;;;;;41.35;20.90;;;;;;;3.59;81.84;101829.48;1769232;80;21347;-54
2021/12/12 08:43:37;;;;;;;38.35;21.82;;;;;;;3.50;82.29;101826.87;1753061;81;21356;-54
2021/12/12 08:46:45;;;;;;;35.73;20.52;;;;;;;3.51;82.25;101826.37;1769465;81;21826;-54
2021/12/12 08:49:52;;;;;;;38.48;21.35;;;;;;;3.53;82.27;101806.38;1769957;80;21205;-54
2021/12/12 08:52:57;;;;;;;35.13;20.60;;;;;;;3.53;82.08;101821.27;1770808;80;21271;-53
2021/12/12 08:56:04;;;;;;;46.42;24.25;;;;;;;3.53;82.07;101830.75;1740824;80;21566;-54
2021/12/12 08:59:09;;;;;;;38.15;19.87;;;;;;;3.55;82.15;101824.73;1706293;84;21224;-53
2021/12/12 09:02:18;;;;;;;38.60;20.82;;;;;;;3.43;81.40;101816.03;1706524;83;21212;-54
2021/12/12 09:05:29;;;;;;;42.62;20.80;;;;;;;3.32;81.73;101815.83;1671563;85;21222;-54
2021/12/12 09:09:07;;;;;;;34.53;19.23;;;;;;;3.40;82.18;101818.94;1704993;84;21275;-52
2021/12/12 09:12:32;;;;;;;37.65;19.73;;;;;;;3.43;81.95;101807.91;1705864;84;21199;-53
2021/12/12 09:15:43;;;;;;;36.50;19.10;;;;;;;3.38;81.81;101814.09;1671618;85;21314;-53
2021/12/12 09:19:03;;;;;;;42.53;21.33;;;;;;;3.35;81.92;101814.28;1705837;84;21212;-52
2021/12/12 09:22:44;;;;;;;38.05;20.08;;;;;;;3.29;81.92;101798.91;1672236;85;21380;-53
2021/12/12 09:25:56;;;;;;;40.25;20.32;;;;;;;3.30;82.16;101807.44;1755610;81;21378;-53
2021/12/12 09:29:11;;;;;;;42.93;19.95;;;;;;;3.34;82.23;101796.31;1740652;81;21251;-53
2021/12/12 09:32:23;;;;;;;40.95;20.20;;;;;;;3.39;82.28;101796.91;1749129;80;21797;-53
2021/12/12 09:35:46;;;;;;;42.58;22.87;;;;;;;3.38;81.91;101795.14;1742863;81;21602;-53
2021/12/12 09:39:09;;;;;;;40.10;22.10;;;;;;;3.32;82.00;101797.36;1739552;82;21225;-53
2021/12/12 09:42:42;;;;;;;42.60;21.00;;;;;;;3.32;82.38;101795.53;1739589;82;21235;-53
2021/12/12 09:46:18;;;;;;;38.58;21.35;;;;;;;3.32;82.33;101802.77;1739459;82;21231;-53
2021/12/12 09:54:07;;;;;;;37.23;18.85;;;;;;;3.33;82.43;101793.70;1745435;81;21193;-53
2021/12/12 09:57:42;;;;;;;36.55;19.25;;;;;;;3.25;82.23;101781.98;1737716;82;21722;-53
2021/12/12 10:00:58;;;;;;;39.83;20.05;;;;;;;3.23;82.47;101777.65;1741037;81;21256;-54
2021/12/12 10:04:33;;;;;;;39.50;20.70;;;;;;;3.31;82.75;101764.51;1738539;81;21236;-53
2021/12/12 10:08:16;;;;;;;41.80;20.92;;;;;;;3.45;82.80;101761.33;1738870;82;21773;-53
2021/12/12 10:11:47;;;;;;;42.27;21.00;;;;;;;3.48;82.57;101755.72;1738047;82;21272;-53
2021/12/12 10:15:18;;;;;;;41.13;21.12;;;;;;;3.61;82.73;101754.45;1756838;81;21177;-53
2021/12/12 10:18:31;;;;;;;44.50;23.47;;;;;;;3.72;82.41;101744.67;1768140;80;21189;-53
2021/12/12 10:22:01;;;;;;;44.10;24.23;;;;;;;3.72;81.71;101737.02;1768576;80;21220;-53
2021/12/12 10:25:18;;;;;;;44.25;22.62;;;;;;;3.60;81.57;101740.03;1766075;80;21178;-53
2021/12/12 10:28:51;;;;;;;43.38;24.15;;;;;;;3.51;81.63;101746.05;1739719;82;21244;-54
2021/12/12 10:32:08;;;;;;;51.95;24.90;;;;;;;3.53;81.98;101741.41;1743601;81;21208;-54
2021/12/12 10:35:20;;;;;;;40.78;22.15;;;;;;;3.50;81.84;101745.67;1739996;82;21280;-54
2021/12/12 10:38:34;;;;;;;41.18;20.62;;;;;;;3.49;81.88;101735.79;1740496;82;21361;-53
2021/12/12 10:41:51;;;;;;;42.85;22.50;;;;;;;3.44;81.79;101741.97;1739760;82;21338;-53
2021/12/12 10:45:10;;;;;;;47.48;24.07;;;;;;;3.49;81.90;101730.38;1740263;82;21181;-53
2021/12/12 10:48:20;;;;;;;43.25;23.18;;;;;;;3.54;81.75;101730.95;1738606;81;21205;-52
2021/12/12 10:51:27;;;;;;;46.00;23.65;;;;;;;3.53;81.72;101723.81;1739508;82;21189;-53
2021/12/12 10:54:46;;;;;;;43.58;23.65;;;;;;;3.60;81.90;101729.20;1739952;82;21264;-54
2021/12/12 10:57:52;;;;;;;53.30;27.62;;;;;;;3.67;81.87;101734.63;1739737;82;21375;-54
2021/12/12 11:01:08;;;;;;;50.67;26.70;;;;;;;3.75;81.86;101726.88;1740927;82;21358;-53
2021/12/12 11:04:30;;;;;;;50.98;25.88;;;;;;;3.77;81.67;101715.47;1734092;82;21919;-53
2021/12/12 11:07:39;;;;;;;46.68;24.57;;;;;;;3.78;81.31;101714.48;1740545;82;21353;-53
2021/12/12 11:10:48;;;;;;;44.00;23.60;;;;;;;3.75;81.18;101728.22;1740255;82;21220;-54
2021/12/12 11:14:14;;;;;;;41.02;22.77;;;;;;;3.77;81.12;101745.25;1757041;80;21430;-54
2021/12/12 11:17:25;;;;;;;35.45;20.32;;;;;;;3.77;80.91;101720.88;1767804;80;21221;-53
2021/12/12 11:20:42;;;;;;;37.73;21.75;;;;;;;3.73;80.70;101713.91;1756324;81;21200;-54
2021/12/12 11:24:09;;;;;;;39.75;21.42;;;;;;;3.68;80.56;101717.39;1770732;80;21212;-53
2021/12/12 11:27:21;;;;;;;39.23;20.95;;;;;;;3.63;80.44;101718.17;1770974;80;21386;-53
2021/12/12 11:30:49;;;;;;;38.58;19.85;;;;;;;3.52;80.43;101732.03;1770130;80;21261;-54
2021/12/12 11:33:57;;;;;;;43.58;22.73;;;;;;;3.46;80.68;101725.16;1770263;80;21189;-53
2021/12/12 11:37:35;;;;;;;39.92;21.87;;;;;;;3.45;80.86;101723.91;1769601;80;21609;-53
2021/12/12 11:40:58;;;;;;;40.00;22.70;;;;;;;3.52;81.13;101720.70;1739273;82;21302;-53
2021/12/12 11:44:30;;;;;;;37.48;22.07;;;;;;;3.47;80.96;101717.45;1740249;82;21232;-53
2021/12/12 11:48:12;;;;;;;43.87;22.50;;;;;;;3.45;81.04;101705.84;1741088;81;21718;-53
2021/12/12 11:51:24;;;;;;;40.40;22.87;;;;;;;3.41;81.30;101715.11;1739397;82;21241;-55
2021/12/12 11:54:41;;;;;;;;;;;;;;;3.43;81.47;101719.95;1741911;82;21695;-55
2021/12/12 11:58:04;;;;;;;33.83;19.17;;;;;;;3.47;81.58;101711.16;1739964;82;20224;-54
2021/12/12 12:01:40;;;;;;;34.03;19.95;;;;;;;3.42;81.34;101714.16;1737211;81;21788;-54
2021/12/12 12:05:16;;;;;;;30.55;19.70;;;;;;;3.37;81.68;101718.11;1763107;80;21327;-53
2021/12/12 12:08:40;;;;;;;29.63;17.17;;;;;;;3.39;81.77;101716.19;1736777;81;21170;-53
2021/12/12 12:11:58;;;;;;;29.52;17.17;;;;;;;3.41;81.91;101725.94;1739103;82;21275;-53
2021/12/12 12:15:29;;;;;;;35.50;20.15;;;;;;;3.48;82.02;101725.94;1739343;81;21184;-54
2021/12/12 12:18:57;;;;;;;28.95;16.87;;;;;;;3.47;81.91;101726.05;1737893;82;21573;-54
2021/12/12 12:22:36;;;;;;;32.98;17.82;;;;;;;3.50;82.03;101718.60;1739571;81;21943;-54
2021/12/12 12:29:35;;;;;;;29.05;17.95;;;;;;;3.53;82.00;101711.63;1747104;81;21216;-53
2021/12/12 12:33:25;;;;;;;29.15;18.23;;;;;;;3.54;82.16;101698.47;1754219;80;21185;-53
2021/12/12 12:37:24;;;;;;;30.77;17.45;;;;;;;3.46;81.91;101699.92;1738233;82;21219;-55
2021/12/12 12:41:12;;;;;;;35.65;18.25;;;;;;;3.37;82.14;101685.63;1738722;81;21869;-53
2021/12/12 12:45:13;;;;;;;36.05;18.92;;;;;;;3.32;82.46;101699.94;1739096;82;21778;-54
2021/12/12 12:48:45;;;;;;;34.30;18.07;;;;;;;3.27;82.57;101692.12;1756187;80;21734;-53
2021/12/12 12:52:39;;;;;;;28.10;16.75;;;;;;;3.30;82.92;101685.66;1762795;80;21785;-53
2021/12/12 12:56:20;;;;;;;30.60;17.55;;;;;;;3.39;83.08;101687.30;1769177;80;21197;-53
2021/12/12 12:59:45;;;;;;;31.23;18.85;;;;;;;3.45;83.16;101695.02;1764014;80;21296;-53
2021/12/12 13:03:43;;;;;;;32.25;17.27;;;;;;;3.47;82.87;101682.73;1747278;80;21808;-53
2021/12/12 13:07:16;;;;;;;33.73;19.37;;;;;;;3.47;82.83;101678.20;1768549;81;21639;-55
2021/12/12 13:10:27;;;;;;;32.40;18.45;;;;;;;3.42;82.52;101679.45;1767852;80;21209;-54
2021/12/12 13:13:39;;;;;;;35.13;19.07;;;;;;;3.25;82.67;101676.96;1768088;80;21268;-55
2021/12/12 13:16:52;;;;;;;33.58;19.48;;;;;;;3.25;83.04;101683.22;1768035;80;21176;-53
2021/12/12 13:20:32;;;;;;;28.90;17.50;;;;;;;3.32;83.21;101672.88;1768903;81;21181;-53
2021/12/12 13:24:08;;;;;;;36.23;19.92;;;;;;;3.34;83.20;101681.30;1759972;80;21212;-54
2021/12/12 13:27:51;;;;;;;36.75;20.85;;;;;;;3.31;83.25;101681.50;1766495;80;21742;-53
2021/12/12 13:31:01;;;;;;;39.63;21.10;;;;;;;3.38;83.51;101681.48;1739489;82;21200;-54
2021/12/12 13:34:25;;;;;;;35.05;20.80;;;;;;;3.39;83.45;101684.59;1739381;82;21817;-53
2021/12/12 13:37:48;;;;;;;;;;;;;;;3.42;83.49;101688.92;1742100;82;21245;-53
2021/12/12 13:41:12;;;;;;;33.05;20.27;;;;;;;3.46;83.43;101689.09;1739798;82;20200;-54
2021/12/12 13:44:49;;;;;;;37.05;21.45;;;;;;;3.41;83.17;101694.80;1741603;81;21216;-54
2021/12/12 13:48:39;;;;;;;41.48;21.02;;;;;;;3.37;83.27;101691.92;1738700;82;21620;-54
2021/12/12 13:52:09;;;;;;;36.58;21.05;;;;;;;3.43;83.43;101691.52;1738901;82;21746;-55
2021/12/12 13:55:25;;;;;;;35.28;19.77;;;;;;;3.44;83.11;101693.76;1739496;82;21259;-53
2021/12/12 13:58:57;;;;;;;37.35;21.15;;;;;;;3.43;83.26;101666.28;1732916;82;21216;-53
2021/12/12 14:02:09;;;;;;;37.85;19.98;;;;;;;3.46;83.17;101680.50;1740122;82;22042;-53
2021/12/12 14:05:34;;;;;;;34.23;20.00;;;;;;;3.47;83.25;101686.31;1739371;81;21710;-53
2021/12/12 14:08:42;;;;;;;36.23;20.35;;;;;;;3.50;83.21;101689.30;1737768;82;21212;-53
2021/12/12 14:11:50;;;;;;;33.88;20.00;;;;;;;3.56;83.30;101688.42;1737876;82;21193;-53
2021/12/12 14:15:13;;;;;;;40.55;21.75;;;;;;;3.61;83.18;101688.99;1737503;82;21216;-53
2021/12/12 14:18:19;;;;;;;37.48;18.25;;;;;;;3.61;82.94;101684.05;1757796;80;21730;-53
2021/12/12 14:21:28;;;;;;;34.23;20.35;;;;;;;3.62;82.95;101672.24;1769357;80;21169;-53
2021/12/12 14:24:34;;;;;;;39.83;19.87;;;;;;;3.58;82.94;101664.83;1769503;80;21204;-53
2021/12/12 14:27:40;;;;;;;41.85;20.85;;;;;;;3.62;83.04;101658.70;1769764;80;21229;-53
2021/12/12 14:30:49;;;;;;;34.92;19.50;;;;;;;3.62;83.06;101651.46;1741313;81;21753;-53
2021/12/12 14:34:06;;;;;;;35.75;19.90;;;;;;;3.61;82.98;101642.97;1753910;80;21208;-53
2021/12/12 14:37:19;;;;;;;34.15;20.15;;;;;;;3.54;82.80;101646.16;1765014;80;21169;-54
2021/12/12 14:40:40;;;;;;;41.63;22.27;;;;;;;3.50;82.91;101649.58;1769628;80;21228;-53
2021/12/12 14:43:49;;;;;;;36.23;20.40;;;;;;;3.49;83.11;101635.63;1769834;80;21793;-54
2021/12/12 14:46:59;;;;;;;34.88;21.40;;;;;;;3.51;83.16;101632.34;1769280;80;21924;-53
2021/12/12 14:50:09;;;;;;;39.20;22.15;;;;;;;3.49;83.07;101628.86;1767936;80;21695;-53
2021/12/12 14:53:15;;;;;;;40.85;22.82;;;;;;;3.39;82.62;101631.81;1770117;80;21173;-52
2021/12/12 14:56:35;;;;;;;40.92;22.98;;;;;;;3.21;82.80;101639.75;1748113;80;21203;-54
2021/12/12 14:59:43;;;;;;;41.08;22.85;;;;;;;3.22;83.19;101652.81;1738139;82;21715;-55
2021/12/12 15:03:06;;;;;;;36.58;21.80;;;;;;;3.25;83.21;101674.25;1738488;82;21639;-54
2021/12/12 15:06:27;;;;;;;36.85;18.98;;;;;;;3.25;83.21;101681.87;1738605;82;21384;-55
2021/12/12 15:09:36;;;;;;;30.62;19.27;;;;;;;3.27;83.11;101684.51;1740017;82;21812;-56
2021/12/12 15:12:46;;;;;;;29.45;18.20;;;;;;;3.31;82.91;101686.91;1755164;81;21251;-54
2021/12/12 15:16:04;;;;;;;32.63;20.25;;;;;;;3.32;82.42;101677.81;1770061;81;21162;-54
2021/12/12 15:19:31;;;;;;;34.83;19.67;;;;;;;3.28;81.86;101668.17;1752205;81;21202;-54
2021/12/12 15:22:45;;;;;;;29.90;18.62;;;;;;;3.22;81.57;101660.42;1757272;80;21268;-53